createdAt,value
2023-04-05T00:00:31.444Z,0.00
2023-04-05T00:01:31.622Z,0.00
2023-04-05T00:02:31.440Z,0.00
2023-04-05T00:03:31.473Z,0.00
2023-04-05T00:04:31.496Z,0.00
2023-04-05T00:05:31.393Z,0.00
2023-04-05T00:06:31.336Z,0.00
2023-04-05T00:07:31.312Z,0.00
2023-04-05T00:08:31.299Z,0.00
2023-04-05T00:09:31.303Z,0.00
2023-04-05T00:10:31.274Z,0.00
2023-04-05T00:11:31.253Z,0.00
2023-04-05T00:12:31.244Z,0.00
2023-04-05T00:13:31.231Z,0.00
2023-04-05T00:14:31.211Z,0.00
2023-04-05T00:15:31.181Z,0.00
2023-04-05T00:16:31.195Z,0.00
2023-04-05T00:17:31.188Z,0.00
2023-04-05T00:18:31.149Z,0.00
2023-04-05T00:19:31.137Z,0.00
2023-04-05T00:20:31.123Z,0.00
2023-04-05T00:21:31.083Z,0.00
2023-04-05T00:22:31.087Z,0.00
2023-04-05T00:23:31.060Z,0.00
2023-04-05T00:24:31.051Z,0.00
2023-04-05T00:25:31.037Z,0.00
2023-04-05T00:26:31.019Z,0.00
2023-04-05T00:27:30.992Z,0.00
2023-04-05T00:28:30.978Z,0.00
2023-04-05T00:29:30.976Z,0.00
2023-04-05T00:30:30.950Z,0.00
2023-04-05T00:31:31.161Z,0.00
2023-04-05T00:32:30.945Z,0.00
2023-04-05T00:33:30.895Z,0.00
2023-04-05T00:34:30.920Z,0.00
2023-04-05T00:35:30.888Z,0.00
2023-04-05T00:36:30.862Z,0.00
2023-04-05T00:37:30.888Z,0.00
2023-04-05T00:38:31.025Z,0.00
2023-04-05T00:39:30.804Z,0.00
2023-04-05T00:40:30.783Z,0.00
2023-04-05T00:41:30.770Z,0.00
2023-04-05T00:42:30.750Z,0.00
2023-04-05T00:43:30.742Z,0.00
2023-04-05T00:44:30.714Z,0.00
2023-04-05T00:45:30.691Z,0.00
2023-04-05T00:46:30.686Z,0.00
2023-04-05T00:47:30.759Z,0.00
2023-04-05T00:48:30.646Z,0.00
2023-04-05T00:49:30.619Z,0.00
2023-04-05T00:50:30.601Z,0.00
2023-04-05T00:51:30.584Z,0.00
2023-04-05T00:52:30.586Z,0.00
2023-04-05T00:53:30.572Z,0.00
2023-04-05T00:54:30.533Z,0.00
2023-04-05T00:55:30.524Z,0.00
2023-04-05T00:56:30.517Z,0.00
2023-04-05T00:57:30.487Z,0.00
2023-04-05T00:58:30.500Z,0.00
2023-04-05T00:59:30.515Z,0.00
2023-04-05T01:00:30.472Z,0.00
2023-04-05T01:01:30.470Z,0.00
2023-04-05T01:02:30.443Z,0.00
2023-04-05T01:03:30.386Z,0.00
2023-04-05T01:04:30.456Z,0.00
2023-04-05T01:05:30.394Z,0.00
2023-04-05T01:06:30.341Z,0.00
2023-04-05T01:07:30.341Z,0.00
2023-04-05T01:08:30.319Z,0.00
2023-04-05T01:09:30.296Z,0.00
2023-04-05T01:10:30.270Z,0.00
2023-04-05T01:11:30.258Z,0.00
2023-04-05T01:12:30.232Z,0.00
2023-04-05T01:13:30.222Z,0.00
2023-04-05T01:14:30.201Z,0.00
2023-04-05T01:15:30.204Z,0.00
2023-04-05T01:16:30.168Z,0.00
2023-04-05T01:17:30.203Z,0.00
2023-04-05T01:18:30.139Z,0.00
2023-04-05T01:19:30.143Z,0.00
2023-04-05T01:20:30.162Z,0.00
2023-04-05T01:21:30.085Z,0.00
2023-04-05T01:22:30.069Z,0.00
2023-04-05T01:23:30.051Z,0.00
2023-04-05T01:24:30.260Z,0.00
2023-04-05T01:25:30.022Z,0.00
2023-04-05T01:26:30.002Z,0.00
2023-04-05T01:27:29.989Z,0.00
2023-04-05T01:28:30.010Z,0.00
2023-04-05T01:29:29.950Z,0.00
2023-04-05T01:30:29.947Z,0.00
2023-04-05T01:31:29.936Z,0.00
2023-04-05T01:32:29.961Z,0.00
2023-04-05T01:33:29.905Z,0.00
2023-04-05T01:34:29.869Z,0.00
2023-04-05T01:35:30.059Z,0.00
2023-04-05T01:36:29.842Z,0.00
2023-04-05T01:37:29.819Z,0.00
2023-04-05T01:38:29.802Z,0.00
2023-04-05T01:39:29.807Z,0.00
2023-04-05T01:40:29.823Z,0.00
2023-04-05T01:41:29.766Z,0.00
2023-04-05T01:42:29.743Z,0.00
2023-04-05T01:43:29.721Z,0.00
2023-04-05T01:44:29.711Z,0.00
2023-04-05T01:45:29.695Z,0.00
2023-04-05T01:46:29.712Z,0.00
2023-04-05T01:47:29.687Z,0.00
2023-04-05T01:48:29.646Z,0.00
2023-04-05T01:49:29.626Z,0.00
2023-04-05T01:50:29.601Z,0.00
2023-04-05T01:51:30.097Z,0.00
2023-04-05T01:52:29.582Z,0.00
2023-04-05T01:53:29.553Z,0.00
2023-04-05T01:54:29.540Z,0.00
2023-04-05T01:55:29.523Z,0.00
2023-04-05T01:56:29.528Z,0.00
2023-04-05T01:57:29.489Z,0.00
2023-04-05T01:58:29.469Z,0.00
2023-04-05T01:59:29.524Z,0.00
2023-04-05T02:00:29.477Z,0.00
2023-04-05T02:01:29.505Z,0.00
2023-04-05T02:02:29.473Z,0.00
2023-04-05T02:03:29.506Z,0.00
2023-04-05T02:04:29.422Z,0.00
2023-04-05T02:05:29.358Z,0.00
2023-04-05T02:06:29.539Z,0.00
2023-04-05T02:07:29.324Z,0.00
2023-04-05T02:08:29.305Z,0.00
2023-04-05T02:09:29.290Z,0.00
2023-04-05T02:10:29.271Z,0.00
2023-04-05T02:11:29.257Z,0.00
2023-04-05T02:12:29.273Z,0.00
2023-04-05T02:13:29.231Z,0.00
2023-04-05T02:14:29.218Z,0.00
2023-04-05T02:15:29.191Z,0.00
2023-04-05T02:16:29.323Z,0.00
2023-04-05T02:17:29.255Z,0.00
2023-04-05T02:18:29.171Z,0.00
2023-04-05T02:19:29.125Z,0.00
2023-04-05T02:20:29.116Z,0.00
2023-04-05T02:21:29.094Z,0.00
2023-04-05T02:22:29.074Z,0.00
2023-04-05T02:23:29.062Z,0.00
2023-04-05T02:24:29.039Z,0.00
2023-04-05T02:25:29.029Z,0.00
2023-04-05T02:26:29.014Z,0.00
2023-04-05T02:27:28.993Z,0.00
2023-04-05T02:28:28.999Z,0.00
2023-04-05T02:29:29.002Z,0.00
2023-04-05T02:30:28.959Z,0.00
2023-04-05T02:31:28.962Z,0.00
2023-04-05T02:32:29.058Z,0.00
2023-04-05T02:33:28.894Z,0.00
2023-04-05T02:34:28.876Z,0.00
2023-04-05T02:35:28.890Z,0.00
2023-04-05T02:36:28.844Z,0.00
2023-04-05T02:37:28.828Z,0.00
2023-04-05T02:38:28.813Z,0.00
2023-04-05T02:39:28.825Z,0.00
2023-04-05T02:40:28.777Z,0.00
2023-04-05T02:41:28.763Z,0.00
2023-04-05T02:42:28.744Z,0.00
2023-04-05T02:43:28.735Z,0.00
2023-04-05T02:44:28.787Z,0.00
2023-04-05T02:45:28.763Z,0.00
2023-04-05T02:46:28.678Z,0.00
2023-04-05T02:47:28.692Z,0.00
2023-04-05T02:48:28.645Z,0.00
2023-04-05T02:49:28.641Z,0.00
2023-04-05T02:50:28.609Z,0.00
2023-04-05T02:51:28.609Z,0.00
2023-04-05T02:52:28.585Z,0.00
2023-04-05T02:53:28.567Z,0.00
2023-04-05T02:54:28.554Z,0.00
2023-04-05T02:55:28.530Z,0.00
2023-04-05T02:56:28.511Z,0.00
2023-04-05T02:57:28.490Z,0.00
2023-04-05T02:58:28.484Z,0.00
2023-04-05T02:59:28.530Z,0.00
2023-04-05T03:00:28.517Z,0.00
2023-04-05T03:01:28.511Z,0.00
2023-04-05T03:02:28.485Z,0.00
2023-04-05T03:03:28.521Z,0.00
2023-04-05T03:04:28.382Z,0.00
2023-04-05T03:05:28.373Z,0.00
2023-04-05T03:06:28.375Z,0.00
2023-04-05T03:07:28.329Z,0.00
2023-04-05T03:08:28.517Z,0.00
2023-04-05T03:09:28.296Z,0.00
2023-04-05T03:10:28.478Z,0.00
2023-04-05T03:11:28.272Z,0.00
2023-04-05T03:12:28.243Z,0.00
2023-04-05T03:13:28.232Z,0.00
2023-04-05T03:14:28.212Z,0.00
2023-04-05T03:15:28.193Z,0.00
2023-04-05T03:16:28.268Z,0.00
2023-04-05T03:17:28.255Z,0.00
2023-04-05T03:18:28.145Z,0.00
2023-04-05T03:19:28.130Z,0.00
2023-04-05T03:20:28.120Z,0.00
2023-04-05T03:21:28.134Z,0.00
2023-04-05T03:22:28.084Z,0.00
2023-04-05T03:23:28.066Z,0.00
2023-04-05T03:24:28.046Z,0.00
2023-04-05T03:25:28.031Z,0.00
2023-04-05T03:26:28.017Z,0.00
2023-04-05T03:27:28.009Z,0.00
2023-04-05T03:28:28.010Z,0.00
2023-04-05T03:29:27.963Z,0.00
2023-04-05T03:30:27.948Z,0.00
2023-04-05T03:31:27.948Z,0.00
2023-04-05T03:32:27.950Z,0.00
2023-04-05T03:33:27.905Z,0.00
2023-04-05T03:34:27.883Z,0.00
2023-04-05T03:35:27.883Z,0.00
2023-04-05T03:36:27.854Z,0.00
2023-04-05T03:37:28.038Z,0.00
2023-04-05T03:38:27.816Z,0.00
2023-04-05T03:39:27.802Z,0.00
2023-04-05T03:40:27.784Z,0.00
2023-04-05T03:41:27.768Z,0.00
2023-04-05T03:42:27.754Z,0.00
2023-04-05T03:43:27.741Z,0.00
2023-04-05T03:44:27.721Z,0.00
2023-04-05T03:45:27.706Z,0.00
2023-04-05T03:46:27.711Z,0.00
2023-04-05T03:47:27.684Z,0.00
2023-04-05T03:48:27.677Z,0.00
2023-04-05T03:49:27.640Z,0.00
2023-04-05T03:50:27.621Z,0.00
2023-04-05T03:51:27.616Z,0.00
2023-04-05T03:52:27.593Z,0.00
2023-04-05T03:53:27.588Z,0.00
2023-04-05T03:54:27.555Z,0.00
2023-04-05T03:55:27.554Z,0.00
2023-04-05T03:56:27.522Z,0.00
2023-04-05T03:57:27.506Z,0.00
2023-04-05T03:58:27.491Z,0.00
2023-04-05T03:59:27.493Z,0.00
2023-04-05T04:00:27.454Z,0.00
2023-04-05T04:01:27.438Z,0.00
2023-04-05T04:02:27.572Z,0.00
2023-04-05T04:03:27.412Z,0.00
2023-04-05T04:04:27.416Z,0.00
2023-04-05T04:05:27.444Z,0.00
2023-04-05T04:06:27.395Z,0.00
2023-04-05T04:07:27.345Z,0.00
2023-04-05T04:08:27.319Z,0.00
2023-04-05T04:09:27.307Z,0.00
2023-04-05T04:10:27.290Z,0.00
2023-04-05T04:11:27.299Z,0.00
2023-04-05T04:12:27.253Z,0.00
2023-04-05T04:13:27.249Z,0.00
2023-04-05T04:14:27.223Z,0.00
2023-04-05T04:15:27.206Z,0.00
2023-04-05T04:16:28.736Z,0.00
2023-04-05T04:17:27.220Z,0.00
2023-04-05T04:18:27.204Z,4.00
2023-04-05T04:19:27.143Z,0.00
2023-04-05T04:20:27.149Z,0.00
2023-04-05T04:21:27.314Z,4.00
2023-04-05T04:22:27.091Z,4.00
2023-04-05T04:23:27.075Z,0.00
2023-04-05T04:24:27.082Z,4.00
2023-04-05T04:25:27.062Z,4.00
2023-04-05T04:26:27.063Z,4.00
2023-04-05T04:27:27.012Z,4.00
2023-04-05T04:28:27.001Z,4.00
2023-04-05T04:29:26.985Z,8.00
2023-04-05T04:30:26.973Z,8.00
2023-04-05T04:31:27.001Z,8.00
2023-04-05T04:32:27.097Z,8.00
2023-04-05T04:33:26.918Z,12.00
2023-04-05T04:34:26.907Z,12.00
2023-04-05T04:35:26.914Z,16.00
2023-04-05T04:36:26.884Z,16.00
2023-04-05T04:37:26.864Z,16.00
2023-04-05T04:38:26.841Z,20.00
2023-04-05T04:39:26.825Z,24.00
2023-04-05T04:40:26.838Z,24.00
2023-04-05T04:41:26.836Z,28.00
2023-04-05T04:42:26.775Z,32.00
2023-04-05T04:43:26.754Z,32.00
2023-04-05T04:44:26.741Z,36.00
2023-04-05T04:45:26.751Z,40.00
2023-04-05T04:46:26.738Z,44.00
2023-04-05T04:47:26.738Z,44.00
2023-04-05T04:48:26.722Z,48.00
2023-04-05T04:49:26.663Z,52.00
2023-04-05T04:50:26.711Z,56.00
2023-04-05T04:51:26.684Z,60.00
2023-04-05T04:52:26.706Z,68.00
2023-04-05T04:53:26.610Z,72.00
2023-04-05T04:54:26.634Z,76.00
2023-04-05T04:55:26.591Z,80.00
2023-04-05T04:56:26.558Z,84.00
2023-04-05T04:57:26.555Z,92.00
2023-04-05T04:58:26.555Z,96.00
2023-04-05T04:59:26.594Z,108.00
2023-04-05T05:00:26.498Z,116.00
2023-04-05T05:01:26.780Z,124.00
2023-04-05T05:02:26.946Z,132.00
2023-04-05T05:03:26.553Z,152.00
2023-04-05T05:04:26.500Z,164.00
2023-04-05T05:05:26.463Z,180.00
2023-04-05T05:06:26.398Z,196.00
2023-04-05T05:07:26.408Z,216.00
2023-04-05T05:08:26.476Z,236.00
2023-04-05T05:09:26.353Z,264.00
2023-04-05T05:10:26.370Z,300.00
2023-04-05T05:11:26.338Z,348.00
2023-04-05T05:12:26.322Z,400.00
2023-04-05T05:13:26.321Z,464.00
2023-04-05T05:14:26.322Z,552.00
2023-04-05T05:15:26.297Z,708.00
2023-04-05T05:16:26.383Z,1504.00
2023-04-05T05:17:26.286Z,2336.00
2023-04-05T05:18:26.271Z,2880.00
2023-04-05T05:19:26.208Z,3652.00
2023-04-05T05:20:26.187Z,4308.00
2023-04-05T05:21:26.195Z,3836.00
2023-04-05T05:22:26.203Z,2208.00
2023-04-05T05:23:26.183Z,1520.00
2023-04-05T05:24:26.166Z,2208.00
2023-04-05T05:25:26.161Z,1544.00
2023-04-05T05:26:26.107Z,1380.00
2023-04-05T05:27:26.090Z,1540.00
2023-04-05T05:28:26.082Z,1660.00
2023-04-05T05:29:26.058Z,1748.00
2023-04-05T05:30:26.256Z,1852.00
2023-04-05T05:31:26.029Z,2024.00
2023-04-05T05:32:26.008Z,2216.00
2023-04-05T05:33:25.999Z,2376.00
2023-04-05T05:34:25.987Z,2500.00
2023-04-05T05:35:25.965Z,2600.00
2023-04-05T05:36:25.956Z,2692.00
2023-04-05T05:37:25.975Z,2820.00
2023-04-05T05:38:25.928Z,2960.00
2023-04-05T05:39:25.892Z,3100.00
2023-04-05T05:40:25.904Z,3228.00
2023-04-05T05:41:25.832Z,3336.00
2023-04-05T05:42:26.036Z,3420.00
2023-04-05T05:43:26.051Z,3488.00
2023-04-05T05:44:25.842Z,3556.00
2023-04-05T05:45:25.806Z,3636.00
2023-04-05T05:46:25.802Z,3672.00
2023-04-05T05:47:25.836Z,3672.00
2023-04-05T05:48:25.829Z,3672.00
2023-04-05T05:49:25.754Z,3688.00
2023-04-05T05:50:25.738Z,3724.00
2023-04-05T05:51:25.802Z,3752.00
2023-04-05T05:52:25.680Z,3788.00
2023-04-05T05:53:25.694Z,3836.00
2023-04-05T05:54:25.654Z,3884.00
2023-04-05T05:55:25.636Z,3936.00
2023-04-05T05:56:25.677Z,3992.00
2023-04-05T05:57:25.722Z,4044.00
2023-04-05T05:58:25.590Z,4088.00
2023-04-05T05:59:25.618Z,4136.00
2023-04-05T06:00:25.577Z,4176.00
2023-04-05T06:01:25.586Z,4224.00
2023-04-05T06:02:25.649Z,4276.00
2023-04-05T06:03:25.674Z,4336.00
2023-04-05T06:04:25.678Z,4408.00
2023-04-05T06:05:25.538Z,4472.00
2023-04-05T06:06:25.484Z,4528.00
2023-04-05T06:07:25.459Z,4568.00
2023-04-05T06:08:25.455Z,4612.00
2023-04-05T06:09:25.481Z,4668.00
2023-04-05T06:10:25.509Z,4720.00
2023-04-05T06:11:25.425Z,4780.00
2023-04-05T06:12:27.612Z,4844.00
2023-04-05T06:13:25.400Z,4896.00
2023-04-05T06:14:25.497Z,4936.00
2023-04-05T06:15:25.355Z,4980.00
2023-04-05T06:16:25.432Z,5012.00
2023-04-05T06:17:25.331Z,5052.00
2023-04-05T06:18:25.333Z,5104.00
2023-04-05T06:19:25.273Z,5156.00
2023-04-05T06:20:25.335Z,5216.00
2023-04-05T06:21:25.253Z,5288.00
2023-04-05T06:22:25.314Z,5360.00
2023-04-05T06:23:25.325Z,5432.00
2023-04-05T06:24:25.267Z,5508.00
2023-04-05T06:25:25.202Z,5572.00
2023-04-05T06:26:25.197Z,5624.00
2023-04-05T06:27:25.132Z,5668.00
2023-04-05T06:28:25.297Z,5732.00
2023-04-05T06:29:25.129Z,5820.00
2023-04-05T06:30:25.354Z,5900.00
2023-04-05T06:31:25.133Z,5972.00
2023-04-05T06:32:25.144Z,6024.00
2023-04-05T06:33:25.109Z,6064.00
2023-04-05T06:34:25.082Z,6092.00
2023-04-05T06:35:25.150Z,6136.00
2023-04-05T06:36:27.289Z,6188.00
2023-04-05T06:37:25.061Z,6252.00
2023-04-05T06:38:25.036Z,6348.00
2023-04-05T06:39:25.059Z,6444.00
2023-04-05T06:40:25.004Z,6524.00
2023-04-05T06:41:24.961Z,6560.00
2023-04-05T06:42:26.476Z,6588.00
2023-04-05T06:43:24.940Z,6652.00
2023-04-05T06:44:24.911Z,6764.00
2023-04-05T06:45:24.874Z,6864.00
2023-04-05T06:46:25.124Z,6952.00
2023-04-05T06:47:24.867Z,7064.00
2023-04-05T06:48:24.822Z,7224.00
2023-04-05T06:49:24.824Z,7320.00
2023-04-05T06:50:24.821Z,7416.00
2023-04-05T06:51:24.800Z,7508.00
2023-04-05T06:52:24.769Z,7600.00
2023-04-05T06:53:24.745Z,7668.00
2023-04-05T06:54:24.782Z,7716.00
2023-04-05T06:55:24.744Z,7720.00
2023-04-05T06:56:24.752Z,7772.00
2023-04-05T06:57:24.723Z,7788.00
2023-04-05T06:58:24.696Z,7752.00
2023-04-05T06:59:24.753Z,7772.00
2023-04-05T07:00:24.683Z,7824.00
2023-04-05T07:01:24.852Z,7932.00
2023-04-05T07:02:24.662Z,8084.00
2023-04-05T07:03:24.745Z,8256.00
2023-04-05T07:04:24.679Z,8376.00
2023-04-05T07:05:24.589Z,8460.00
2023-04-05T07:06:24.683Z,8532.00
2023-04-05T07:07:24.564Z,8656.00
2023-04-05T07:08:24.535Z,8856.00
2023-04-05T07:09:24.559Z,9072.00
2023-04-05T07:10:24.626Z,9272.00
2023-04-05T07:11:24.545Z,9404.00
2023-04-05T07:12:24.515Z,9316.00
2023-04-05T07:13:24.621Z,9176.00
2023-04-05T07:14:24.454Z,9360.00
2023-04-05T07:15:24.419Z,9588.00
2023-04-05T07:16:24.657Z,9632.00
2023-04-05T07:17:24.719Z,9636.00
2023-04-05T07:18:24.767Z,9688.00
2023-04-05T07:19:24.408Z,9780.00
2023-04-05T07:20:24.364Z,9968.00
2023-04-05T07:21:24.361Z,10196.00
2023-04-05T07:22:24.429Z,10464.00
2023-04-05T07:23:24.351Z,10696.00
2023-04-05T07:24:24.438Z,10944.00
2023-04-05T07:25:24.288Z,10820.00
2023-04-05T07:26:24.302Z,10840.00
2023-04-05T07:27:24.282Z,10996.00
2023-04-05T07:28:24.276Z,10632.00
2023-04-05T07:29:24.259Z,11176.00
2023-04-05T07:30:24.252Z,11724.00
2023-04-05T07:31:24.273Z,12072.00
2023-04-05T07:32:24.316Z,12208.00
2023-04-05T07:33:24.198Z,12164.00
2023-04-05T07:34:24.210Z,11992.00
2023-04-05T07:35:24.172Z,11980.00
2023-04-05T07:36:24.159Z,14548.00
2023-04-05T07:37:24.371Z,28640.00
2023-04-05T07:38:24.176Z,48288.00
2023-04-05T07:39:24.153Z,71424.00
2023-04-05T07:40:24.147Z,81728.00
2023-04-05T07:41:24.108Z,82080.00
2023-04-05T07:42:24.117Z,82752.00
2023-04-05T07:43:24.089Z,82560.00
2023-04-05T07:44:24.121Z,81184.00
2023-04-05T07:45:24.071Z,78368.00
2023-04-05T07:46:24.095Z,73600.00
2023-04-05T07:47:24.063Z,63200.00
2023-04-05T07:48:24.130Z,53920.00
2023-04-05T07:49:24.055Z,61888.00
2023-04-05T07:50:24.055Z,78464.00
2023-04-05T07:51:24.017Z,75584.00
2023-04-05T07:52:23.989Z,69952.00
2023-04-05T07:53:24.021Z,64832.00
2023-04-05T07:54:23.995Z,74496.00
2023-04-05T07:55:23.988Z,70592.00
2023-04-05T07:56:23.988Z,72512.00
2023-04-05T07:57:23.942Z,68192.00
2023-04-05T07:58:23.977Z,68704.00
2023-04-05T07:59:23.986Z,71968.00
2023-04-05T08:00:23.981Z,79872.00
2023-04-05T08:01:23.956Z,83456.00
2023-04-05T08:02:23.932Z,80928.00
2023-04-05T08:03:23.995Z,74304.00
2023-04-05T08:04:24.018Z,71616.00
2023-04-05T08:05:23.977Z,74848.00
2023-04-05T08:06:23.958Z,79008.00
2023-04-05T08:07:23.877Z,75648.00
2023-04-05T08:08:23.878Z,46080.00
2023-04-05T08:09:23.869Z,24480.00
2023-04-05T08:10:23.858Z,16096.00
2023-04-05T08:11:23.880Z,15968.00
2023-04-05T08:12:23.845Z,25792.00
2023-04-05T08:13:23.845Z,62816.00
2023-04-05T08:14:23.826Z,75840.00
2023-04-05T08:15:23.826Z,69984.00
2023-04-05T08:16:23.892Z,71072.00
2023-04-05T08:17:23.889Z,79168.00
2023-04-05T08:18:23.816Z,80416.00
2023-04-05T08:19:23.805Z,74368.00
2023-04-05T08:20:23.819Z,75040.00
2023-04-05T08:21:23.803Z,76544.00
2023-04-05T08:22:23.823Z,70688.00
2023-04-05T08:23:23.779Z,72320.00
2023-04-05T08:24:23.773Z,76992.00
2023-04-05T08:25:23.760Z,74080.00
2023-04-05T08:26:23.769Z,69312.00
2023-04-05T08:27:23.749Z,66624.00
2023-04-05T08:28:23.752Z,66976.00
2023-04-05T08:29:23.740Z,71456.00
2023-04-05T08:30:23.732Z,74080.00
2023-04-05T08:31:23.758Z,72512.00
2023-04-05T08:32:23.768Z,70816.00
2023-04-05T08:33:23.724Z,69856.00
2023-04-05T08:34:23.701Z,67776.00
2023-04-05T08:35:23.769Z,64224.00
2023-04-05T08:36:23.746Z,62080.00
2023-04-05T08:37:23.696Z,64160.00
2023-04-05T08:38:23.885Z,63584.00
2023-04-05T08:39:23.696Z,61728.00
2023-04-05T08:40:23.676Z,63072.00
2023-04-05T08:41:23.695Z,63584.00
2023-04-05T08:42:23.868Z,61248.00
2023-04-05T08:43:23.661Z,60480.00
2023-04-05T08:44:23.648Z,61248.00
2023-04-05T08:45:23.648Z,61568.00
2023-04-05T08:46:23.746Z,64672.00
2023-04-05T08:47:23.638Z,64544.00
2023-04-05T08:48:23.667Z,62752.00
2023-04-05T08:49:23.628Z,63616.00
2023-04-05T08:50:23.611Z,65568.00
2023-04-05T08:51:23.622Z,58624.00
2023-04-05T08:52:23.630Z,41152.00
2023-04-05T08:53:23.605Z,16576.00
2023-04-05T08:54:23.646Z,9864.00
2023-04-05T08:55:23.578Z,9528.00
2023-04-05T08:56:23.581Z,9356.00
2023-04-05T08:57:23.563Z,9280.00
2023-04-05T08:58:23.559Z,9264.00
2023-04-05T08:59:23.595Z,9932.00
2023-04-05T09:00:23.549Z,10112.00
2023-04-05T09:01:23.611Z,9756.00
2023-04-05T09:02:23.557Z,9836.00
2023-04-05T09:03:23.647Z,9864.00
2023-04-05T09:04:23.538Z,9820.00
2023-04-05T09:05:23.522Z,9764.00
2023-04-05T09:06:23.700Z,9656.00
2023-04-05T09:07:23.550Z,8392.00
2023-04-05T09:08:23.519Z,6596.00
2023-04-05T09:09:23.487Z,5704.00
2023-04-05T09:10:23.499Z,7828.00
2023-04-05T09:11:23.536Z,5368.00
2023-04-05T09:12:23.485Z,4304.00
2023-04-05T09:13:23.455Z,3644.00
2023-04-05T09:14:23.466Z,3492.00
2023-04-05T09:15:23.440Z,3436.00
2023-04-05T09:16:23.464Z,3252.00
2023-04-05T09:17:23.455Z,3180.00
2023-04-05T09:18:27.358Z,3140.00
2023-04-05T09:19:23.417Z,3148.00
2023-04-05T09:20:23.386Z,3284.00
2023-04-05T09:21:23.424Z,3228.00
2023-04-05T09:22:23.388Z,3300.00
2023-04-05T09:23:23.364Z,3332.00
2023-04-05T09:24:23.375Z,3400.00
2023-04-05T09:25:23.546Z,3572.00
2023-04-05T09:26:23.331Z,3644.00
2023-04-05T09:27:23.349Z,4136.00
2023-04-05T09:28:23.725Z,5524.00
2023-04-05T09:29:23.305Z,6356.00
2023-04-05T09:30:23.297Z,7080.00
2023-04-05T09:31:23.304Z,7432.00
2023-04-05T09:32:23.258Z,7756.00
2023-04-05T09:33:23.277Z,8040.00
2023-04-05T09:34:23.249Z,8100.00
2023-04-05T09:35:23.268Z,8192.00
2023-04-05T09:36:23.227Z,8276.00
2023-04-05T09:37:23.251Z,8424.00
2023-04-05T09:38:23.206Z,8480.00
2023-04-05T09:39:23.252Z,8396.00
2023-04-05T09:40:23.218Z,8360.00
2023-04-05T09:41:23.179Z,8240.00
2023-04-05T09:42:23.400Z,8132.00
2023-04-05T09:43:23.156Z,8016.00
2023-04-05T09:44:23.341Z,7936.00
2023-04-05T09:45:23.130Z,7956.00
2023-04-05T09:46:23.127Z,7960.00
2023-04-05T09:47:23.211Z,7912.00
2023-04-05T09:48:23.093Z,8008.00
2023-04-05T09:49:23.825Z,8032.00
2023-04-05T09:50:23.074Z,7164.00
2023-04-05T09:51:23.076Z,7988.00
2023-04-05T09:52:23.062Z,8088.00
2023-04-05T09:53:23.051Z,8220.00
2023-04-05T09:54:23.038Z,8264.00
2023-04-05T09:55:23.033Z,8260.00
2023-04-05T09:56:23.041Z,8272.00
2023-04-05T09:57:23.024Z,8256.00
2023-04-05T09:58:23.018Z,8236.00
2023-04-05T09:59:23.067Z,8280.00
2023-04-05T10:00:23.016Z,8328.00
2023-04-05T10:01:23.031Z,8388.00
2023-04-05T10:02:23.080Z,8496.00
2023-04-05T10:03:23.077Z,8600.00
2023-04-05T10:04:22.942Z,8544.00
2023-04-05T10:05:23.119Z,8696.00
2023-04-05T10:06:22.943Z,8792.00
2023-04-05T10:07:22.961Z,7280.00
2023-04-05T10:08:22.940Z,7060.00
2023-04-05T10:09:22.873Z,7004.00
2023-04-05T10:10:22.878Z,8092.00
2023-04-05T10:11:22.890Z,6864.00
2023-04-05T10:12:22.881Z,8040.00
2023-04-05T10:13:22.843Z,8244.00
2023-04-05T10:14:22.830Z,8640.00
2023-04-05T10:15:22.828Z,7704.00
2023-04-05T10:16:22.873Z,7400.00
2023-04-05T10:17:22.849Z,7216.00
2023-04-05T10:18:22.785Z,7436.00
2023-04-05T10:19:22.786Z,7784.00
2023-04-05T10:20:22.769Z,8644.00
2023-04-05T10:21:22.755Z,7516.00
2023-04-05T10:22:22.744Z,7416.00
2023-04-05T10:23:22.742Z,7440.00
2023-04-05T10:24:22.735Z,8072.00
2023-04-05T10:25:22.715Z,9196.00
2023-04-05T10:26:22.723Z,7412.00
2023-04-05T10:27:22.723Z,7248.00
2023-04-05T10:28:22.922Z,7164.00
2023-04-05T10:29:22.897Z,7272.00
2023-04-05T10:30:22.662Z,8168.00
2023-04-05T10:31:36.351Z,7468.00
2023-04-05T10:32:22.807Z,6772.00
2023-04-05T10:33:22.737Z,6548.00
2023-04-05T10:34:22.626Z,6380.00
2023-04-05T10:35:22.712Z,6308.00
2023-04-05T10:36:22.702Z,7868.00
2023-04-05T10:37:22.677Z,7792.00
2023-04-05T10:38:22.624Z,7552.00
2023-04-05T10:39:22.570Z,7544.00
2023-04-05T10:40:22.580Z,7064.00
2023-04-05T10:41:22.591Z,5668.00
2023-04-05T10:42:22.586Z,5656.00
2023-04-05T10:43:22.640Z,5668.00
2023-04-05T10:44:26.153Z,5720.00
2023-04-05T10:45:22.719Z,5640.00
2023-04-05T10:46:22.526Z,5552.00
2023-04-05T10:47:22.770Z,6236.00
2023-04-05T10:48:22.478Z,5484.00
2023-04-05T10:49:22.461Z,6712.00
2023-04-05T10:50:22.548Z,6884.00
2023-04-05T10:51:22.501Z,7084.00
2023-04-05T10:52:22.625Z,7048.00
2023-04-05T10:53:22.419Z,7084.00
2023-04-05T10:54:22.468Z,6992.00
2023-04-05T10:55:22.436Z,5660.00
2023-04-05T10:56:22.441Z,5528.00
2023-04-05T10:57:22.392Z,5228.00
2023-04-05T10:58:22.413Z,5536.00
2023-04-05T10:59:22.456Z,4936.00
2023-04-05T11:00:22.370Z,4728.00
2023-04-05T11:01:22.435Z,4556.00
2023-04-05T11:02:22.344Z,4488.00
2023-04-05T11:03:22.502Z,4432.00
2023-04-05T11:04:22.374Z,4408.00
2023-04-05T11:05:22.317Z,4432.00
2023-04-05T11:06:22.285Z,4340.00
2023-04-05T11:07:22.310Z,4236.00
2023-04-05T11:08:22.276Z,4204.00
2023-04-05T11:09:22.280Z,4168.00
2023-04-05T11:10:22.245Z,4120.00
2023-04-05T11:11:22.292Z,4148.00
2023-04-05T11:12:22.226Z,4208.00
2023-04-05T11:13:22.278Z,4300.00
2023-04-05T11:14:22.205Z,4400.00
2023-04-05T11:15:22.263Z,4528.00
2023-04-05T11:16:22.308Z,4548.00
2023-04-05T11:17:22.193Z,4572.00
2023-04-05T11:18:22.221Z,4672.00
2023-04-05T11:19:22.202Z,4676.00
2023-04-05T11:20:22.226Z,4764.00
2023-04-05T11:21:22.136Z,4832.00
2023-04-05T11:22:22.144Z,4932.00
2023-04-05T11:23:22.132Z,5040.00
2023-04-05T11:24:22.105Z,5148.00
2023-04-05T11:25:22.143Z,5108.00
2023-04-05T11:26:22.100Z,5044.00
2023-04-05T11:27:22.095Z,5000.00
2023-04-05T11:28:22.087Z,4924.00
2023-04-05T11:29:22.055Z,4852.00
2023-04-05T11:30:22.044Z,4832.00
2023-04-05T11:31:22.123Z,4816.00
2023-04-05T11:32:22.083Z,4804.00
2023-04-05T11:33:22.023Z,4856.00
2023-04-05T11:34:24.026Z,4904.00
2023-04-05T11:35:21.975Z,4948.00
2023-04-05T11:36:21.999Z,4984.00
2023-04-05T11:37:21.981Z,4976.00
2023-04-05T11:38:21.963Z,5084.00
2023-04-05T11:39:21.975Z,6116.00
2023-04-05T11:40:22.003Z,5496.00
2023-04-05T11:41:21.914Z,5396.00
2023-04-05T11:42:21.907Z,5492.00
2023-04-05T11:43:21.895Z,5636.00
2023-04-05T11:44:22.146Z,5272.00
2023-04-05T11:45:21.920Z,6276.00
2023-04-05T11:46:21.895Z,6408.00
2023-04-05T11:47:22.044Z,6436.00
2023-04-05T11:48:21.880Z,6500.00
2023-04-05T11:49:21.816Z,6496.00
2023-04-05T11:50:21.827Z,6488.00
2023-04-05T11:51:21.808Z,6440.00
2023-04-05T11:52:21.829Z,6244.00
2023-04-05T11:53:21.796Z,4804.00
2023-04-05T11:54:21.851Z,4544.00
2023-04-05T11:55:21.760Z,4412.00
2023-04-05T11:56:21.742Z,4296.00
2023-04-05T11:57:21.744Z,4248.00
2023-04-05T11:58:21.774Z,4268.00
2023-04-05T11:59:21.738Z,4304.00
2023-04-05T12:00:21.726Z,4320.00
2023-04-05T12:01:22.349Z,4372.00
2023-04-05T12:02:21.806Z,4432.00
2023-04-05T12:03:21.783Z,4444.00
2023-04-05T12:04:21.715Z,4488.00
2023-04-05T12:05:21.820Z,4532.00
2023-04-05T12:06:21.651Z,4788.00
2023-04-05T12:07:21.644Z,4804.00
2023-04-05T12:08:21.825Z,4664.00
2023-04-05T12:09:21.610Z,4520.00
2023-04-05T12:10:21.599Z,4468.00
2023-04-05T12:11:21.588Z,4480.00
2023-04-05T12:12:21.570Z,4464.00
2023-04-05T12:13:21.572Z,4468.00
2023-04-05T12:14:21.571Z,4504.00
2023-04-05T12:15:21.557Z,4468.00
2023-04-05T12:16:21.586Z,4408.00
2023-04-05T12:17:21.544Z,4428.00
2023-04-05T12:18:21.521Z,4376.00
2023-04-05T12:19:21.508Z,4328.00
2023-04-05T12:20:21.611Z,4280.00
2023-04-05T12:21:21.494Z,4256.00
2023-04-05T12:22:21.482Z,4244.00
2023-04-05T12:23:21.468Z,4212.00
2023-04-05T12:24:21.455Z,4124.00
2023-04-05T12:25:21.462Z,4116.00
2023-04-05T12:26:21.430Z,4088.00
2023-04-05T12:27:21.424Z,4084.00
2023-04-05T12:28:21.412Z,4104.00
2023-04-05T12:29:21.418Z,4152.00